sensor_id;sensor_type;location;lat;lon;timestamp;P1;durP1;ratioP1;P2;durP2;ratioP2
26151;SDS011;13907;53.154;8.202;2022-08-19T00:00:50;4.22;;;2.72;;
26151;SDS011;13907;53.154;8.202;2022-08-19T00:03:17;6.88;;;2.97;;
26151;SDS011;13907;53.154;8.202;2022-08-19T00:05:44;18.45;;;6.10;;
26151;SDS011;13907;53.154;8.202;2022-08-19T00:08:11;30.45;;;10.95;;
26151;SDS011;13907;53.154;8.202;2022-08-19T00:10:38;34.33;;;12.45;;
26151;SDS011;13907;53.154;8.202;2022-08-19T00:13:05;74.53;;;24.08;;
26151;SDS011;13907;53.154;8.202;2022-08-19T00:15:33;112.72;;;33.92;;
26151;SDS011;13907;53.154;8.202;2022-08-19T00:18:01;99.90;;;33.65;;
26151;SDS011;13907;53.154;8.202;2022-08-19T00:20:28;126.30;;;37.25;;
26151;SDS011;13907;53.154;8.202;2022-08-19T00:22:55;146.45;;;46.45;;
26151;SDS011;13907;53.154;8.202;2022-08-19T00:25:23;217.07;;;64.35;;
26151;SDS011;13907;53.154;8.202;2022-08-19T00:27:50;236.75;;;71.45;;
26151;SDS011;13907;53.154;8.202;2022-08-19T00:30:17;238.95;;;69.82;;
26151;SDS011;13907;53.154;8.202;2022-08-19T00:32:44;264.83;;;81.38;;
26151;SDS011;13907;53.154;8.202;2022-08-19T00:35:13;320.13;;;89.28;;
26151;SDS011;13907;53.154;8.202;2022-08-19T00:37:41;353.15;;;101.07;;
26151;SDS011;13907;53.154;8.202;2022-08-19T00:40:10;385.20;;;109.45;;
26151;SDS011;13907;53.154;8.202;2022-08-19T00:42:37;336.80;;;101.72;;
26151;SDS011;13907;53.154;8.202;2022-08-19T00:45:05;329.92;;;99.10;;
26151;SDS011;13907;53.154;8.202;2022-08-19T00:47:35;266.30;;;79.57;;
26151;SDS011;13907;53.154;8.202;2022-08-19T00:50:02;244.90;;;65.75;;
26151;SDS011;13907;53.154;8.202;2022-08-19T00:52:32;197.07;;;54.72;;
26151;SDS011;13907;53.154;8.202;2022-08-19T00:55:00;148.13;;;46.10;;
26151;SDS011;13907;53.154;8.202;2022-08-19T00:57:30;113.32;;;38.13;;
26151;SDS011;13907;53.154;8.202;2022-08-19T00:59:58;55.53;;;20.30;;
26151;SDS011;13907;53.154;8.202;2022-08-19T01:02:27;39.58;;;14.55;;
26151;SDS011;13907;53.154;8.202;2022-08-19T01:04:55;38.58;;;13.23;;
26151;SDS011;13907;53.154;8.202;2022-08-19T01:07:22;28.77;;;10.57;;
26151;SDS011;13907;53.154;8.202;2022-08-19T01:09:51;20.50;;;8.13;;
26151;SDS011;13907;53.154;8.202;2022-08-19T01:12:18;13.98;;;7.03;;
26151;SDS011;13907;53.154;8.202;2022-08-19T01:14:46;9.23;;;4.35;;
26151;SDS011;13907;53.154;8.202;2022-08-19T01:17:13;9.32;;;4.47;;
26151;SDS011;13907;53.154;8.202;2022-08-19T01:19:41;7.28;;;3.10;;
26151;SDS011;13907;53.154;8.202;2022-08-19T01:22:10;4.32;;;2.85;;
26151;SDS011;13907;53.154;8.202;2022-08-19T01:24:40;6.18;;;3.15;;
26151;SDS011;13907;53.154;8.202;2022-08-19T01:27:07;5.30;;;3.10;;
26151;SDS011;13907;53.154;8.202;2022-08-19T01:29:36;2.95;;;2.10;;
26151;SDS011;13907;53.154;8.202;2022-08-19T01:32:04;3.53;;;2.90;;
26151;SDS011;13907;53.154;8.202;2022-08-19T01:34:32;3.50;;;2.25;;
26151;SDS011;13907;53.154;8.202;2022-08-19T01:36:59;4.05;;;2.50;;
26151;SDS011;13907;53.154;8.202;2022-08-19T01:39:27;3.85;;;2.47;;
26151;SDS011;13907;53.154;8.202;2022-08-19T01:41:56;3.78;;;2.70;;
26151;SDS011;13907;53.154;8.202;2022-08-19T01:44:23;4.70;;;2.85;;
26151;SDS011;13907;53.154;8.202;2022-08-19T01:46:50;3.70;;;2.28;;
26151;SDS011;13907;53.154;8.202;2022-08-19T01:49:18;4.40;;;3.35;;
26151;SDS011;13907;53.154;8.202;2022-08-19T01:51:46;3.42;;;1.98;;
26151;SDS011;13907;53.154;8.202;2022-08-19T01:54:15;4.90;;;2.30;;
26151;SDS011;13907;53.154;8.202;2022-08-19T01:56:42;4.30;;;2.08;;
26151;SDS011;13907;53.154;8.202;2022-08-19T01:59:12;5.28;;;2.47;;
26151;SDS011;13907;53.154;8.202;2022-08-19T02:01:39;3.42;;;2.38;;
26151;SDS011;13907;53.154;8.202;2022-08-19T02:04:06;3.00;;;1.85;;
26151;SDS011;13907;53.154;8.202;2022-08-19T02:06:34;4.63;;;2.72;;
26151;SDS011;13907;53.154;8.202;2022-08-19T02:09:01;2.47;;;1.95;;
26151;SDS011;13907;53.154;8.202;2022-08-19T02:11:30;4.63;;;2.22;;
26151;SDS011;13907;53.154;8.202;2022-08-19T02:13:58;3.78;;;2.67;;
26151;SDS011;13907;53.154;8.202;2022-08-19T02:16:28;3.75;;;2.05;;
26151;SDS011;13907;53.154;8.202;2022-08-19T02:18:55;3.25;;;2.10;;
26151;SDS011;13907;53.154;8.202;2022-08-19T02:21:25;4.18;;;2.63;;
26151;SDS011;13907;53.154;8.202;2022-08-19T02:23:52;3.17;;;2.20;;
26151;SDS011;13907;53.154;8.202;2022-08-19T02:26:20;5.45;;;2.50;;
26151;SDS011;13907;53.154;8.202;2022-08-19T02:28:48;2.63;;;2.08;;
26151;SDS011;13907;53.154;8.202;2022-08-19T02:31:18;2.40;;;1.98;;
26151;SDS011;13907;53.154;8.202;2022-08-19T02:33:46;2.22;;;1.50;;
26151;SDS011;13907;53.154;8.202;2022-08-19T02:36:14;2.70;;;1.67;;
26151;SDS011;13907;53.154;8.202;2022-08-19T02:38:42;3.63;;;2.10;;
26151;SDS011;13907;53.154;8.202;2022-08-19T02:41:12;1.85;;;1.58;;
26151;SDS011;13907;53.154;8.202;2022-08-19T02:43:39;6.63;;;2.00;;
26151;SDS011;13907;53.154;8.202;2022-08-19T02:46:14;1.95;;;1.75;;
26151;SDS011;13907;53.154;8.202;2022-08-19T02:48:47;3.38;;;2.10;;
26151;SDS011;13907;53.154;8.202;2022-08-19T02:51:17;2.38;;;1.70;;
26151;SDS011;13907;53.154;8.202;2022-08-19T02:53:45;2.20;;;1.30;;
26151;SDS011;13907;53.154;8.202;2022-08-19T02:56:12;1.80;;;1.50;;
26151;SDS011;13907;53.154;8.202;2022-08-19T02:58:39;1.90;;;1.60;;
26151;SDS011;13907;53.154;8.202;2022-08-19T03:01:06;2.33;;;1.42;;
26151;SDS011;13907;53.154;8.202;2022-08-19T03:03:33;1.50;;;1.40;;
26151;SDS011;13907;53.154;8.202;2022-08-19T03:06:06;2.13;;;1.67;;
26151;SDS011;13907;53.154;8.202;2022-08-19T03:08:33;2.33;;;2.00;;
26151;SDS011;13907;53.154;8.202;2022-08-19T03:11:00;1.80;;;1.15;;
26151;SDS011;13907;53.154;8.202;2022-08-19T03:13:27;2.17;;;1.77;;
26151;SDS011;13907;53.154;8.202;2022-08-19T03:15:55;2.65;;;1.45;;
26151;SDS011;13907;53.154;8.202;2022-08-19T03:18:22;1.45;;;1.35;;
26151;SDS011;13907;53.154;8.202;2022-08-19T03:20:51;3.05;;;1.63;;
26151;SDS011;13907;53.154;8.202;2022-08-19T03:23:20;1.83;;;1.30;;
26151;SDS011;13907;53.154;8.202;2022-08-19T03:25:48;1.45;;;1.20;;
26151;SDS011;13907;53.154;8.202;2022-08-19T03:28:16;2.08;;;1.45;;
26151;SDS011;13907;53.154;8.202;2022-08-19T03:30:54;3.35;;;1.70;;
26151;SDS011;13907;53.154;8.202;2022-08-19T03:33:22;1.98;;;1.63;;
26151;SDS011;13907;53.154;8.202;2022-08-19T03:35:59;2.97;;;1.27;;
26151;SDS011;13907;53.154;8.202;2022-08-19T03:38:27;2.00;;;1.33;;
26151;SDS011;13907;53.154;8.202;2022-08-19T03:40:54;2.50;;;1.35;;
26151;SDS011;13907;53.154;8.202;2022-08-19T03:43:21;2.20;;;1.00;;
26151;SDS011;13907;53.154;8.202;2022-08-19T03:45:48;2.55;;;1.60;;
26151;SDS011;13907;53.154;8.202;2022-08-19T03:48:16;1.70;;;1.60;;
26151;SDS011;13907;53.154;8.202;2022-08-19T03:50:43;2.20;;;1.50;;
26151;SDS011;13907;53.154;8.202;2022-08-19T03:53:10;2.03;;;1.42;;
26151;SDS011;13907;53.154;8.202;2022-08-19T03:55:40;2.13;;;1.50;;
26151;SDS011;13907;53.154;8.202;2022-08-19T03:58:07;1.33;;;1.20;;
26151;SDS011;13907;53.154;8.202;2022-08-19T04:00:35;1.65;;;1.48;;
26151;SDS011;13907;53.154;8.202;2022-08-19T04:03:03;1.90;;;1.38;;
26151;SDS011;13907;53.154;8.202;2022-08-19T04:05:30;1.80;;;1.10;;
26151;SDS011;13907;53.154;8.202;2022-08-19T04:07:57;1.15;;;0.98;;
26151;SDS011;13907;53.154;8.202;2022-08-19T04:10:25;1.55;;;1.17;;
26151;SDS011;13907;53.154;8.202;2022-08-19T04:12:54;2.13;;;1.42;;
26151;SDS011;13907;53.154;8.202;2022-08-19T04:15:21;1.63;;;1.30;;
26151;SDS011;13907;53.154;8.202;2022-08-19T04:17:48;2.60;;;1.65;;
26151;SDS011;13907;53.154;8.202;2022-08-19T04:20:15;1.50;;;1.40;;
26151;SDS011;13907;53.154;8.202;2022-08-19T04:22:42;1.00;;;0.90;;
26151;SDS011;13907;53.154;8.202;2022-08-19T04:25:10;1.75;;;1.42;;
26151;SDS011;13907;53.154;8.202;2022-08-19T04:27:37;1.80;;;1.42;;
26151;SDS011;13907;53.154;8.202;2022-08-19T04:30:06;1.83;;;1.40;;
26151;SDS011;13907;53.154;8.202;2022-08-19T04:32:33;2.70;;;1.40;;
26151;SDS011;13907;53.154;8.202;2022-08-19T04:35:00;1.73;;;1.48;;
26151;SDS011;13907;53.154;8.202;2022-08-19T04:37:27;1.08;;;1.00;;
26151;SDS011;13907;53.154;8.202;2022-08-19T04:39:56;2.20;;;1.30;;
26151;SDS011;13907;53.154;8.202;2022-08-19T04:42:46;1.67;;;1.33;;
26151;SDS011;13907;53.154;8.202;2022-08-19T04:45:15;1.50;;;1.33;;
26151;SDS011;13907;53.154;8.202;2022-08-19T04:47:42;0.98;;;0.93;;
26151;SDS011;13907;53.154;8.202;2022-08-19T04:50:10;2.42;;;1.55;;
26151;SDS011;13907;53.154;8.202;2022-08-19T04:52:37;1.83;;;1.48;;
26151;SDS011;13907;53.154;8.202;2022-08-19T04:55:08;1.48;;;1.27;;
26151;SDS011;13907;53.154;8.202;2022-08-19T04:57:35;2.30;;;1.50;;
26151;SDS011;13907;53.154;8.202;2022-08-19T05:00:05;1.75;;;1.08;;
26151;SDS011;13907;53.154;8.202;2022-08-19T05:02:34;1.30;;;1.17;;
26151;SDS011;13907;53.154;8.202;2022-08-19T05:05:01;1.85;;;1.52;;
26151;SDS011;13907;53.154;8.202;2022-08-19T05:07:28;3.22;;;1.52;;
26151;SDS011;13907;53.154;8.202;2022-08-19T05:09:56;4.32;;;1.38;;
26151;SDS011;13907;53.154;8.202;2022-08-19T05:12:23;2.15;;;1.40;;
26151;SDS011;13907;53.154;8.202;2022-08-19T05:14:50;1.33;;;1.23;;
26151;SDS011;13907;53.154;8.202;2022-08-19T05:17:17;1.67;;;1.02;;
26151;SDS011;13907;53.154;8.202;2022-08-19T05:19:46;1.63;;;1.15;;
26151;SDS011;13907;53.154;8.202;2022-08-19T05:22:35;1.50;;;1.40;;
26151;SDS011;13907;53.154;8.202;2022-08-19T05:25:05;1.38;;;1.25;;
26151;SDS011;13907;53.154;8.202;2022-08-19T05:27:32;2.40;;;1.60;;
26151;SDS011;13907;53.154;8.202;2022-08-19T05:30:00;3.45;;;1.92;;
26151;SDS011;13907;53.154;8.202;2022-08-19T05:32:27;2.38;;;1.60;;
26151;SDS011;13907;53.154;8.202;2022-08-19T05:34:56;2.78;;;1.75;;
26151;SDS011;13907;53.154;8.202;2022-08-19T05:37:23;2.72;;;1.85;;
26151;SDS011;13907;53.154;8.202;2022-08-19T05:39:51;1.55;;;1.08;;
26151;SDS011;13907;53.154;8.202;2022-08-19T05:42:19;2.05;;;1.63;;
26151;SDS011;13907;53.154;8.202;2022-08-19T05:44:48;3.00;;;1.48;;
26151;SDS011;13907;53.154;8.202;2022-08-19T05:47:15;2.58;;;1.55;;
26151;SDS011;13907;53.154;8.202;2022-08-19T05:49:44;3.78;;;1.77;;
26151;SDS011;13907;53.154;8.202;2022-08-19T05:52:13;4.95;;;2.55;;
26151;SDS011;13907;53.154;8.202;2022-08-19T05:54:41;3.72;;;1.88;;
26151;SDS011;13907;53.154;8.202;2022-08-19T05:57:10;5.35;;;2.75;;
26151;SDS011;13907;53.154;8.202;2022-08-19T05:59:37;5.07;;;2.38;;
26151;SDS011;13907;53.154;8.202;2022-08-19T06:02:04;4.57;;;2.35;;
26151;SDS011;13907;53.154;8.202;2022-08-19T06:04:33;5.43;;;2.00;;
26151;SDS011;13907;53.154;8.202;2022-08-19T06:07:00;5.93;;;2.17;;
26151;SDS011;13907;53.154;8.202;2022-08-19T06:09:28;7.28;;;3.13;;
26151;SDS011;13907;53.154;8.202;2022-08-19T06:11:56;8.77;;;3.70;;
26151;SDS011;13907;53.154;8.202;2022-08-19T06:14:27;14.05;;;5.00;;
26151;SDS011;13907;53.154;8.202;2022-08-19T06:16:54;10.43;;;3.58;;
26151;SDS011;13907;53.154;8.202;2022-08-19T06:19:22;14.77;;;4.32;;
26151;SDS011;13907;53.154;8.202;2022-08-19T06:21:50;5.07;;;3.60;;
26151;SDS011;13907;53.154;8.202;2022-08-19T06:24:19;8.13;;;3.60;;
26151;SDS011;13907;53.154;8.202;2022-08-19T06:26:50;5.53;;;2.72;;
26151;SDS011;13907;53.154;8.202;2022-08-19T06:29:17;3.70;;;2.90;;
26151;SDS011;13907;53.154;8.202;2022-08-19T06:31:46;5.93;;;2.03;;
26151;SDS011;13907;53.154;8.202;2022-08-19T06:34:14;5.95;;;2.00;;
26151;SDS011;13907;53.154;8.202;2022-08-19T06:36:42;4.35;;;1.52;;
26151;SDS011;13907;53.154;8.202;2022-08-19T06:39:11;3.75;;;1.40;;
26151;SDS011;13907;53.154;8.202;2022-08-19T06:41:40;2.75;;;1.48;;
26151;SDS011;13907;53.154;8.202;2022-08-19T06:44:09;3.63;;;1.65;;
26151;SDS011;13907;53.154;8.202;2022-08-19T06:46:36;1.20;;;1.10;;
26151;SDS011;13907;53.154;8.202;2022-08-19T06:49:03;1.58;;;1.42;;
26151;SDS011;13907;53.154;8.202;2022-08-19T06:51:35;1.80;;;1.23;;
26151;SDS011;13907;53.154;8.202;2022-08-19T06:54:02;2.60;;;1.70;;
26151;SDS011;13907;53.154;8.202;2022-08-19T06:56:30;3.13;;;1.00;;
26151;SDS011;13907;53.154;8.202;2022-08-19T06:58:58;1.35;;;1.00;;
26151;SDS011;13907;53.154;8.202;2022-08-19T07:01:27;2.25;;;1.73;;
26151;SDS011;13907;53.154;8.202;2022-08-19T07:03:54;2.63;;;1.13;;
26151;SDS011;13907;53.154;8.202;2022-08-19T07:06:22;1.40;;;1.00;;
26151;SDS011;13907;53.154;8.202;2022-08-19T07:08:49;2.25;;;1.38;;
26151;SDS011;13907;53.154;8.202;2022-08-19T07:11:17;1.17;;;0.60;;
26151;SDS011;13907;53.154;8.202;2022-08-19T07:13:46;1.45;;;1.00;;
26151;SDS011;13907;53.154;8.202;2022-08-19T07:16:15;2.35;;;1.63;;
26151;SDS011;13907;53.154;8.202;2022-08-19T07:18:44;0.88;;;0.85;;
26151;SDS011;13907;53.154;8.202;2022-08-19T07:21:12;1.17;;;1.00;;
26151;SDS011;13907;53.154;8.202;2022-08-19T07:23:40;1.17;;;1.08;;
26151;SDS011;13907;53.154;8.202;2022-08-19T07:26:07;1.13;;;0.82;;
26151;SDS011;13907;53.154;8.202;2022-08-19T07:28:34;1.63;;;0.85;;
26151;SDS011;13907;53.154;8.202;2022-08-19T07:31:04;1.08;;;0.95;;
26151;SDS011;13907;53.154;8.202;2022-08-19T07:33:31;1.48;;;0.90;;
26151;SDS011;13907;53.154;8.202;2022-08-19T07:36:00;1.05;;;0.93;;
26151;SDS011;13907;53.154;8.202;2022-08-19T07:38:27;2.10;;;1.08;;
26151;SDS011;13907;53.154;8.202;2022-08-19T07:40:54;1.48;;;0.90;;
26151;SDS011;13907;53.154;8.202;2022-08-19T07:43:21;1.48;;;0.90;;
26151;SDS011;13907;53.154;8.202;2022-08-19T07:45:50;0.98;;;0.80;;
26151;SDS011;13907;53.154;8.202;2022-08-19T07:48:17;1.10;;;0.70;;
26151;SDS011;13907;53.154;8.202;2022-08-19T07:50:45;0.70;;;0.70;;
26151;SDS011;13907;53.154;8.202;2022-08-19T07:53:14;1.10;;;0.75;;
26151;SDS011;13907;53.154;8.202;2022-08-19T07:55:41;3.60;;;0.95;;
26151;SDS011;13907;53.154;8.202;2022-08-19T07:58:10;1.08;;;0.80;;
26151;SDS011;13907;53.154;8.202;2022-08-19T08:00:37;0.75;;;0.73;;
26151;SDS011;13907;53.154;8.202;2022-08-19T08:03:04;2.08;;;0.70;;
26151;SDS011;13907;53.154;8.202;2022-08-19T08:05:33;0.70;;;0.50;;
26151;SDS011;13907;53.154;8.202;2022-08-19T08:08:19;1.20;;;0.75;;
26151;SDS011;13907;53.154;8.202;2022-08-19T08:11:04;3.35;;;0.88;;
26151;SDS011;13907;53.154;8.202;2022-08-19T08:13:31;2.97;;;0.95;;
26151;SDS011;13907;53.154;8.202;2022-08-19T08:16:00;2.30;;;1.02;;
26151;SDS011;13907;53.154;8.202;2022-08-19T08:18:27;0.75;;;0.70;;
26151;SDS011;13907;53.154;8.202;2022-08-19T08:20:55;0.77;;;0.60;;
26151;SDS011;13907;53.154;8.202;2022-08-19T08:23:23;0.80;;;0.80;;
26151;SDS011;13907;53.154;8.202;2022-08-19T08:25:51;0.90;;;0.60;;
26151;SDS011;13907;53.154;8.202;2022-08-19T08:28:19;1.05;;;1.00;;
26151;SDS011;13907;53.154;8.202;2022-08-19T08:30:47;2.35;;;1.00;;
26151;SDS011;13907;53.154;8.202;2022-08-19T08:33:14;0.82;;;0.70;;
26151;SDS011;13907;53.154;8.202;2022-08-19T08:35:44;1.33;;;0.50;;
26151;SDS011;13907;53.154;8.202;2022-08-19T08:38:11;2.22;;;0.98;;
26151;SDS011;13907;53.154;8.202;2022-08-19T08:40:42;2.22;;;0.88;;
26151;SDS011;13907;53.154;8.202;2022-08-19T08:43:13;1.48;;;0.88;;
26151;SDS011;13907;53.154;8.202;2022-08-19T08:45:47;2.90;;;0.93;;
26151;SDS011;13907;53.154;8.202;2022-08-19T08:48:18;0.90;;;0.60;;
26151;SDS011;13907;53.154;8.202;2022-08-19T08:50:46;1.52;;;1.13;;
26151;SDS011;13907;53.154;8.202;2022-08-19T08:53:17;2.15;;;1.08;;
26151;SDS011;13907;53.154;8.202;2022-08-19T08:55:45;2.47;;;0.93;;
26151;SDS011;13907;53.154;8.202;2022-08-19T08:58:13;0.93;;;0.90;;
26151;SDS011;13907;53.154;8.202;2022-08-19T09:00:43;1.33;;;0.93;;
26151;SDS011;13907;53.154;8.202;2022-08-19T09:03:14;0.82;;;0.75;;
26151;SDS011;13907;53.154;8.202;2022-08-19T09:05:45;0.93;;;0.80;;
26151;SDS011;13907;53.154;8.202;2022-08-19T09:08:22;1.73;;;0.60;;
26151;SDS011;13907;53.154;8.202;2022-08-19T09:10:56;3.40;;;1.10;;
26151;SDS011;13907;53.154;8.202;2022-08-19T09:13:24;0.63;;;0.57;;
26151;SDS011;13907;53.154;8.202;2022-08-19T09:15:56;1.05;;;0.82;;
26151;SDS011;13907;53.154;8.202;2022-08-19T09:18:26;3.45;;;1.30;;
26151;SDS011;13907;53.154;8.202;2022-08-19T09:20:53;2.55;;;2.00;;
26151;SDS011;13907;53.154;8.202;2022-08-19T09:23:21;0.60;;;0.60;;
26151;SDS011;13907;53.154;8.202;2022-08-19T09:25:49;1.95;;;1.02;;
26151;SDS011;13907;53.154;8.202;2022-08-19T09:28:17;0.68;;;0.68;;
26151;SDS011;13907;53.154;8.202;2022-08-19T09:30:44;1.00;;;0.90;;
26151;SDS011;13907;53.154;8.202;2022-08-19T09:33:11;1.27;;;0.70;;
26151;SDS011;13907;53.154;8.202;2022-08-19T09:35:38;2.67;;;0.80;;
26151;SDS011;13907;53.154;8.202;2022-08-19T09:38:05;1.35;;;1.08;;
26151;SDS011;13907;53.154;8.202;2022-08-19T09:40:33;0.57;;;0.52;;
26151;SDS011;13907;53.154;8.202;2022-08-19T09:43:00;1.67;;;0.73;;
26151;SDS011;13907;53.154;8.202;2022-08-19T09:45:29;1.08;;;0.70;;
26151;SDS011;13907;53.154;8.202;2022-08-19T09:47:56;1.55;;;0.80;;
26151;SDS011;13907;53.154;8.202;2022-08-19T09:50:23;0.82;;;0.68;;
26151;SDS011;13907;53.154;8.202;2022-08-19T09:52:51;1.25;;;0.75;;
26151;SDS011;13907;53.154;8.202;2022-08-19T09:55:19;1.27;;;1.00;;
26151;SDS011;13907;53.154;8.202;2022-08-19T09:57:46;0.65;;;0.65;;
26151;SDS011;13907;53.154;8.202;2022-08-19T10:00:13;0.93;;;0.77;;
26151;SDS011;13907;53.154;8.202;2022-08-19T10:02:42;1.63;;;0.95;;
26151;SDS011;13907;53.154;8.202;2022-08-19T10:05:09;1.02;;;0.93;;
26151;SDS011;13907;53.154;8.202;2022-08-19T10:07:54;1.05;;;0.93;;
26151;SDS011;13907;53.154;8.202;2022-08-19T10:10:21;0.77;;;0.60;;
26151;SDS011;13907;53.154;8.202;2022-08-19T10:12:49;1.02;;;0.77;;
26151;SDS011;13907;53.154;8.202;2022-08-19T10:15:16;1.05;;;0.80;;
26151;SDS011;13907;53.154;8.202;2022-08-19T10:17:47;0.75;;;0.75;;
26151;SDS011;13907;53.154;8.202;2022-08-19T10:20:14;1.88;;;0.90;;
26151;SDS011;13907;53.154;8.202;2022-08-19T10:22:41;0.80;;;0.65;;
26151;SDS011;13907;53.154;8.202;2022-08-19T10:25:09;1.42;;;0.60;;
26151;SDS011;13907;53.154;8.202;2022-08-19T10:27:37;1.35;;;0.55;;
26151;SDS011;13907;53.154;8.202;2022-08-19T10:30:05;1.33;;;0.82;;
26151;SDS011;13907;53.154;8.202;2022-08-19T10:32:33;0.65;;;0.65;;
26151;SDS011;13907;53.154;8.202;2022-08-19T10:35:02;0.80;;;0.80;;
26151;SDS011;13907;53.154;8.202;2022-08-19T10:37:32;0.75;;;0.63;;
26151;SDS011;13907;53.154;8.202;2022-08-19T10:39:59;0.60;;;0.60;;
26151;SDS011;13907;53.154;8.202;2022-08-19T10:42:27;1.95;;;0.60;;
26151;SDS011;13907;53.154;8.202;2022-08-19T10:44:56;0.55;;;0.55;;
26151;SDS011;13907;53.154;8.202;2022-08-19T10:47:23;0.90;;;0.60;;
26151;SDS011;13907;53.154;8.202;2022-08-19T10:49:50;0.60;;;0.60;;
26151;SDS011;13907;53.154;8.202;2022-08-19T10:52:36;1.60;;;0.65;;
26151;SDS011;13907;53.154;8.202;2022-08-19T10:55:04;0.55;;;0.55;;
26151;SDS011;13907;53.154;8.202;2022-08-19T10:57:48;0.50;;;0.50;;
26151;SDS011;13907;53.154;8.202;2022-08-19T11:00:16;1.48;;;0.82;;
26151;SDS011;13907;53.154;8.202;2022-08-19T11:02:44;1.20;;;0.88;;
26151;SDS011;13907;53.154;8.202;2022-08-19T11:05:11;0.77;;;0.77;;
26151;SDS011;13907;53.154;8.202;2022-08-19T11:07:41;0.95;;;0.70;;
26151;SDS011;13907;53.154;8.202;2022-08-19T11:10:09;1.00;;;0.60;;
26151;SDS011;13907;53.154;8.202;2022-08-19T11:12:37;0.80;;;0.60;;
26151;SDS011;13907;53.154;8.202;2022-08-19T11:15:05;1.52;;;0.90;;
26151;SDS011;13907;53.154;8.202;2022-08-19T11:17:35;1.15;;;0.80;;
26151;SDS011;13907;53.154;8.202;2022-08-19T11:20:05;0.55;;;0.55;;
26151;SDS011;13907;53.154;8.202;2022-08-19T11:25:02;0.50;;;0.50;;
26151;SDS011;13907;53.154;8.202;2022-08-19T11:27:30;0.68;;;0.68;;
26151;SDS011;13907;53.154;8.202;2022-08-19T11:29:57;2.47;;;0.90;;
26151;SDS011;13907;53.154;8.202;2022-08-19T11:32:25;1.50;;;0.55;;
26151;SDS011;13907;53.154;8.202;2022-08-19T11:34:52;3.08;;;0.88;;
26151;SDS011;13907;53.154;8.202;2022-08-19T11:37:19;0.52;;;0.40;;
26151;SDS011;13907;53.154;8.202;2022-08-19T11:39:46;0.60;;;0.60;;
26151;SDS011;13907;53.154;8.202;2022-08-19T11:42:15;1.08;;;0.98;;
26151;SDS011;13907;53.154;8.202;2022-08-19T11:45:01;0.75;;;0.73;;
26151;SDS011;13907;53.154;8.202;2022-08-19T11:47:29;1.33;;;0.73;;
26151;SDS011;13907;53.154;8.202;2022-08-19T11:49:56;1.02;;;0.60;;
26151;SDS011;13907;53.154;8.202;2022-08-19T11:52:23;0.68;;;0.60;;
26151;SDS011;13907;53.154;8.202;2022-08-19T11:54:50;0.60;;;0.60;;
26151;SDS011;13907;53.154;8.202;2022-08-19T11:57:19;0.60;;;0.60;;
26151;SDS011;13907;53.154;8.202;2022-08-19T11:59:49;2.40;;;0.63;;
26151;SDS011;13907;53.154;8.202;2022-08-19T12:02:16;0.60;;;0.50;;
26151;SDS011;13907;53.154;8.202;2022-08-19T12:04:44;0.68;;;0.68;;
26151;SDS011;13907;53.154;8.202;2022-08-19T12:07:11;0.95;;;0.63;;
26151;SDS011;13907;53.154;8.202;2022-08-19T12:09:38;1.88;;;0.63;;
26151;SDS011;13907;53.154;8.202;2022-08-19T12:12:05;2.10;;;0.70;;
26151;SDS011;13907;53.154;8.202;2022-08-19T12:14:34;0.82;;;0.55;;
26151;SDS011;13907;53.154;8.202;2022-08-19T12:17:02;0.63;;;0.40;;
26151;SDS011;13907;53.154;8.202;2022-08-19T12:19:31;1.10;;;1.00;;
26151;SDS011;13907;53.154;8.202;2022-08-19T12:21:59;0.88;;;0.88;;
26151;SDS011;13907;53.154;8.202;2022-08-19T12:24:30;0.45;;;0.45;;
26151;SDS011;13907;53.154;8.202;2022-08-19T12:26:57;0.75;;;0.57;;
26151;SDS011;13907;53.154;8.202;2022-08-19T12:29:26;0.50;;;0.50;;
26151;SDS011;13907;53.154;8.202;2022-08-19T12:31:56;0.68;;;0.60;;
26151;SDS011;13907;53.154;8.202;2022-08-19T12:34:26;0.68;;;0.60;;
26151;SDS011;13907;53.154;8.202;2022-08-19T12:36:55;0.77;;;0.70;;
26151;SDS011;13907;53.154;8.202;2022-08-19T12:39:22;0.60;;;0.60;;
26151;SDS011;13907;53.154;8.202;2022-08-19T12:41:49;2.47;;;0.63;;
26151;SDS011;13907;53.154;8.202;2022-08-19T12:44:16;0.90;;;0.70;;
26151;SDS011;13907;53.154;8.202;2022-08-19T12:46:44;1.33;;;0.65;;
26151;SDS011;13907;53.154;8.202;2022-08-19T12:49:12;0.45;;;0.45;;
26151;SDS011;13907;53.154;8.202;2022-08-19T12:51:40;2.20;;;0.60;;
26151;SDS011;13907;53.154;8.202;2022-08-19T12:54:07;2.20;;;0.77;;
26151;SDS011;13907;53.154;8.202;2022-08-19T12:56:35;0.65;;;0.52;;
26151;SDS011;13907;53.154;8.202;2022-08-19T12:59:03;1.75;;;0.82;;
26151;SDS011;13907;53.154;8.202;2022-08-19T13:01:32;1.83;;;0.80;;
26151;SDS011;13907;53.154;8.202;2022-08-19T13:03:59;1.23;;;0.98;;
26151;SDS011;13907;53.154;8.202;2022-08-19T13:06:28;0.70;;;0.55;;
26151;SDS011;13907;53.154;8.202;2022-08-19T13:08:55;0.95;;;0.77;;
26151;SDS011;13907;53.154;8.202;2022-08-19T13:11:22;1.17;;;0.70;;
26151;SDS011;13907;53.154;8.202;2022-08-19T13:13:50;3.25;;;0.98;;
26151;SDS011;13907;53.154;8.202;2022-08-19T13:16:20;0.85;;;0.68;;
26151;SDS011;13907;53.154;8.202;2022-08-19T13:18:48;1.77;;;0.63;;
26151;SDS011;13907;53.154;8.202;2022-08-19T13:21:17;1.35;;;0.60;;
26151;SDS011;13907;53.154;8.202;2022-08-19T13:23:46;0.57;;;0.50;;
26151;SDS011;13907;53.154;8.202;2022-08-19T13:26:14;0.55;;;0.55;;
26151;SDS011;13907;53.154;8.202;2022-08-19T13:28:41;0.70;;;0.50;;
26151;SDS011;13907;53.154;8.202;2022-08-19T13:31:28;0.70;;;0.70;;
26151;SDS011;13907;53.154;8.202;2022-08-19T13:34:13;1.10;;;0.60;;
26151;SDS011;13907;53.154;8.202;2022-08-19T13:36:40;0.70;;;0.70;;
26151;SDS011;13907;53.154;8.202;2022-08-19T13:39:09;0.73;;;0.70;;
26151;SDS011;13907;53.154;8.202;2022-08-19T13:41:37;0.60;;;0.60;;
26151;SDS011;13907;53.154;8.202;2022-08-19T13:44:04;1.38;;;0.95;;
26151;SDS011;13907;53.154;8.202;2022-08-19T13:46:32;0.70;;;0.70;;
26151;SDS011;13907;53.154;8.202;2022-08-19T13:48:59;1.65;;;0.60;;
26151;SDS011;13907;53.154;8.202;2022-08-19T13:51:26;1.48;;;0.80;;
26151;SDS011;13907;53.154;8.202;2022-08-19T13:53:53;0.60;;;0.60;;
26151;SDS011;13907;53.154;8.202;2022-08-19T13:56:21;1.10;;;0.55;;
26151;SDS011;13907;53.154;8.202;2022-08-19T13:58:48;0.57;;;0.57;;
26151;SDS011;13907;53.154;8.202;2022-08-19T14:01:18;1.10;;;0.90;;
26151;SDS011;13907;53.154;8.202;2022-08-19T14:03:46;0.80;;;0.52;;
26151;SDS011;13907;53.154;8.202;2022-08-19T14:06:13;0.50;;;0.50;;
26151;SDS011;13907;53.154;8.202;2022-08-19T14:08:41;0.50;;;0.50;;
26151;SDS011;13907;53.154;8.202;2022-08-19T14:11:08;0.60;;;0.60;;
26151;SDS011;13907;53.154;8.202;2022-08-19T14:13:37;1.00;;;0.80;;
26151;SDS011;13907;53.154;8.202;2022-08-19T14:16:06;1.60;;;0.60;;
26151;SDS011;13907;53.154;8.202;2022-08-19T14:18:33;0.50;;;0.50;;
26151;SDS011;13907;53.154;8.202;2022-08-19T14:21:00;1.15;;;0.80;;
26151;SDS011;13907;53.154;8.202;2022-08-19T14:23:28;1.77;;;0.95;;
26151;SDS011;13907;53.154;8.202;2022-08-19T14:26:02;0.77;;;0.60;;
26151;SDS011;13907;53.154;8.202;2022-08-19T14:28:29;0.70;;;0.65;;
26151;SDS011;13907;53.154;8.202;2022-08-19T14:30:58;1.42;;;1.33;;
26151;SDS011;13907;53.154;8.202;2022-08-19T14:33:25;1.05;;;0.70;;
26151;SDS011;13907;53.154;8.202;2022-08-19T14:35:52;0.68;;;0.68;;
26151;SDS011;13907;53.154;8.202;2022-08-19T14:38:19;1.00;;;0.95;;
26151;SDS011;13907;53.154;8.202;2022-08-19T14:40:46;1.20;;;0.80;;
26151;SDS011;13907;53.154;8.202;2022-08-19T14:43:14;4.03;;;1.23;;
26151;SDS011;13907;53.154;8.202;2022-08-19T14:45:42;0.80;;;0.63;;
26151;SDS011;13907;53.154;8.202;2022-08-19T14:48:11;1.25;;;1.10;;
26151;SDS011;13907;53.154;8.202;2022-08-19T14:50:38;0.70;;;0.63;;
26151;SDS011;13907;53.154;8.202;2022-08-19T14:53:06;1.45;;;0.98;;
26151;SDS011;13907;53.154;8.202;2022-08-19T14:55:33;2.17;;;1.10;;